Date,TemperatureHighF,TemperatureAvgF,TemperatureLowF,DewpointHighF,DewpointAvgF,DewpointLowF,HumidityHigh,HumidityAvg,HumidityLow,PressureMaxIn,PressureMinIn,WindSpeedMaxMPH,WindSpeedAvgMPH,GustSpeedMaxMPH,PrecipitationSumIn
2013-1-1,27.0,14.0,5.0,13.0,7.5,2.0,88,76,53,0.00,40.00,7,2,14,0.00
2013-1-2,29.0,8.9,-3.0,10.0,-1.2,-99.9,85,75,44,0.00,40.00,3,1,5,0.00
2013-1-3,29.0,13.0,3.0,15.0,6.6,-1.0,86,76,52,0.00,40.00,2,1,7,0.00
2013-1-4,35.0,20.1,9.0,25.0,13.1,5.0,89,76,43,0.00,40.00,3,2,7,0.00
2013-1-5,45.0,26.6,18.0,23.0,20.0,16.0,94,78,36,0.00,40.00,5,2,11,0.00
2013-1-6,40.0,30.0,24.0,27.0,21.2,17.0,80,70,48,0.00,40.00,4,2,11,0.00
2013-1-7,38.0,29.5,22.0,31.0,23.7,16.0,92,78,62,0.00,40.00,6,4,20,0.04
2013-1-8,40.0,36.8,34.0,33.0,26.2,20.0,90,67,47,0.00,40.00,7,4,19,0.01
2013-1-9,44.0,36.2,32.0,33.0,28.8,26.0,90,75,54,0.00,40.00,5,3,12,0.00
2013-1-10,34.0,27.5,22.0,32.0,25.7,20.0,95,93,88,0.00,40.00,5,2,11,0.59
2013-1-11,22.0,14.0,6.0,20.0,9.0,1.0,92,80,71,0.00,40.00,7,4,19,0.02
2013-1-12,16.0,3.2,-8.0,8.0,-3.3,-15.0,82,73,60,0.00,40.00,3,2,9,0.01
2013-1-13,17.0,2.8,-6.0,7.0,-4.4,-12.0,79,72,50,0.00,40.00,3,2,6,0.00
2013-1-14,21.0,12.0,-6.0,14.0,5.9,-12.0,86,76,61,0.00,40.00,4,2,10,0.00
2013-1-15,39.0,19.6,15.0,28.0,16.3,12.0,93,87,56,0.00,40.00,5,2,12,0.01
2013-1-16,46.0,24.2,18.0,34.0,18.8,13.0,95,80,53,0.00,40.00,7,4,12,0.01
2013-1-17,49.0,23.0,13.0,30.0,16.7,10.0,89,78,40,0.00,40.00,6,3,14,0.00
2013-1-18,51.0,28.3,20.0,27.0,16.9,13.0,78,64,25,0.00,40.00,6,4,16,0.00
2013-1-19,52.0,26.0,19.0,23.0,15.4,10.0,78,65,25,0.00,40.00,4,3,10,0.00
2013-1-20,53.0,27.3,19.0,22.0,14.7,10.0,75,61,21,0.00,40.00,5,3,15,0.00
2013-1-21,57.0,26.7,17.0,21.0,16.3,13.0,83,67,18,0.00,40.00,6,3,11,0.00
2013-1-22,49.0,26.0,15.0,21.0,13.1,6.0,72,59,24,0.00,40.00,5,3,13,0.00
2013-1-23,45.0,32.5,23.0,25.0,17.5,13.0,71,55,28,0.00,40.00,6,3,17,0.00
2013-1-24,49.0,37.5,28.0,35.0,29.4,22.0,97,76,39,0.00,40.00,5,3,14,0.07
2013-1-25,41.0,34.0,30.0,36.0,29.5,23.0,97,83,74,0.00,40.00,4,2,11,0.22
2013-1-26,40.0,33.9,31.0,38.0,32.6,30.0,98,96,89,0.00,40.00,4,1,11,0.25
2013-1-27,33.0,26.1,17.0,30.0,23.0,15.0,97,88,69,0.00,40.00,3,1,7,0.11
2013-1-28,31.0,23.9,17.0,22.0,18.6,15.0,90,81,55,0.00,40.00,5,3,11,0.00
2013-1-29,30.0,26.0,24.0,24.0,22.3,20.0,93,86,77,0.00,40.00,5,2,11,0.13
2013-1-30,36.0,31.0,26.0,32.0,28.5,23.0,95,90,78,0.00,40.00,5,3,12,0.04
2013-1-31,43.0,36.5,33.0,35.0,31.5,29.0,96,82,59,0.00,40.00,6,3,15,0.01
2013-2-1,45.0,35.1,26.0,32.0,28.5,23.0,96,78,48,0.00,40.00,6,3,16,0.00
2013-2-2,51.0,29.4,20.0,31.0,22.0,16.0,93,77,35,0.00,40.00,4,2,11,0.00
2013-2-3,49.0,31.7,20.0,24.0,21.0,18.0,90,69,31,0.00,40.00,5,3,13,0.00
2013-2-4,37.0,32.2,27.0,34.0,27.0,21.0,94,82,59,0.00,40.00,4,2,12,0.01
2013-2-5,52.0,36.1,29.0,31.0,25.5,17.0,94,69,27,0.00,40.00,5,3,18,0.01
2013-2-6,40.0,31.6,24.0,31.0,23.8,18.0,94,75,43,0.00,40.00,6,3,14,0.05
2013-2-7,43.0,28.8,23.0,22.0,17.7,15.0,80,65,33,0.00,40.00,6,3,13,0.02
2013-2-8,38.0,29.3,23.0,23.0,19.5,16.0,82,67,50,0.00,40.00,6,2,15,0.00
2013-2-9,34.0,28.9,26.0,23.0,19.2,12.0,86,68,40,0.00,40.00,5,2,10,0.00
2013-2-10,36.0,26.5,19.0,23.0,16.8,8.0,86,68,33,0.00,40.00,5,3,13,0.01
2013-2-11,39.0,22.1,11.0,20.0,13.0,6.0,81,69,46,0.00,40.00,6,3,12,0.01
2013-2-12,38.0,30.3,24.0,27.0,23.8,18.0,91,77,55,0.00,40.00,7,2,16,0.00
2013-2-13,41.0,36.9,32.0,31.0,25.8,23.0,89,65,48,0.00,40.00,7,4,21,0.00
2013-2-14,39.0,33.3,29.0,26.0,21.4,18.0,82,63,42,0.00,40.00,6,3,17,0.00
2013-2-15,51.0,34.4,25.0,27.0,24.2,22.0,88,69,38,0.00,40.00,6,2,12,0.00
2013-2-16,56.0,36.0,25.0,31.0,22.8,20.0,93,63,27,0.00,40.00,6,4,17,0.01
2013-2-17,36.0,29.8,25.0,31.0,23.6,19.0,93,78,52,0.00,40.00,5,3,17,0.09
2013-2-18,40.0,26.2,13.0,19.0,14.8,8.0,83,65,30,0.00,40.00,6,4,14,0.06
2013-2-19,41.0,31.4,25.0,27.0,18.9,12.0,90,62,30,0.00,40.00,6,2,14,0.00
2013-2-20,35.0,29.2,21.0,28.0,24.9,17.0,95,84,66,0.00,40.00,5,2,9,0.11
2013-2-21,34.0,21.5,6.0,23.0,12.4,1.0,88,71,38,0.00,40.00,5,3,11,0.02
2013-2-22,38.0,29.9,22.0,30.0,22.1,17.0,95,75,46,0.00,40.00,7,3,16,0.05
2013-2-23,34.0,28.5,21.0,30.0,20.3,12.0,95,73,46,0.00,40.00,6,3,16,0.07
2013-2-24,38.0,23.8,12.0,17.0,12.5,9.0,87,65,33,0.00,40.00,6,3,13,0.01
2013-2-25,33.0,23.8,17.0,27.0,17.8,11.0,93,78,63,0.00,40.00,7,3,15,0.12
2013-2-26,37.0,26.2,19.0,21.0,17.4,12.0,90,72,36,0.00,40.00,5,2,15,0.02
2013-2-27,46.0,26.4,15.0,16.0,11.3,8.0,81,58,21,0.00,40.00,7,4,18,0.00
2013-2-28,42.0,31.6,24.0,35.0,24.4,13.0,96,75,61,0.00,40.00,5,2,12,0.07
2013-3-1,52.0,38.5,32.0,38.0,33.2,30.0,98,84,50,0.00,40.00,6,2,14,0.08
2013-3-2,57.0,36.9,28.0,32.0,28.2,19.0,95,75,22,0.00,40.00,5,3,11,0.01
2013-3-3,38.0,33.6,27.0,35.0,23.3,9.0,96,68,36,0.00,40.00,10,4,24,0.03
2013-3-4,40.0,28.6,21.0,20.0,14.0,9.0,82,56,29,0.00,40.00,5,3,11,0.01
2013-3-5,45.0,28.2,15.0,20.0,11.8,7.0,75,54,26,0.00,40.00,5,3,14,0.00
2013-3-6,50.0,33.1,27.0,38.0,25.9,19.0,97,76,39,0.00,40.00,9,2,25,0.20
2013-3-7,46.0,34.0,26.0,31.0,24.2,11.0,95,72,25,0.00,40.00,5,3,11,0.23
2013-3-8,47.0,29.0,17.0,23.0,18.0,13.0,91,68,26,0.00,40.00,6,2,13,0.01
2013-3-9,46.0,29.7,16.0,22.0,17.6,13.0,89,65,31,0.00,40.00,5,3,15,0.00
2013-3-10,53.0,36.2,22.0,27.0,16.2,8.0,86,52,17,0.00,40.00,6,4,18,0.00
2013-3-11,47.0,37.7,30.0,33.0,24.1,13.0,96,65,27,0.00,40.00,6,3,20,0.01
2013-3-12,56.0,38.6,26.0,31.0,24.3,19.0,74,59,33,0.00,40.00,6,3,16,0.01
2013-3-13,59.0,43.4,31.0,32.0,28.1,23.0,86,60,25,0.00,40.00,6,3,15,0.00
2013-3-14,65.0,42.5,29.0,31.0,27.3,24.0,89,61,21,0.00,40.00,6,3,15,0.00
2013-3-15,57.0,43.8,35.0,31.0,27.0,22.0,74,55,26,0.00,40.00,5,3,12,0.00
2013-3-16,53.0,39.3,30.0,28.0,24.7,19.0,87,61,28,0.00,40.00,7,3,16,0.00
2013-3-17,41.0,29.0,25.0,32.0,23.4,19.0,93,80,54,0.00,40.00,9,4,17,0.21
2013-3-18,36.0,27.5,22.0,25.0,19.4,14.0,88,73,48,0.00,40.00,6,4,15,0.04
2013-3-19,49.0,33.9,19.0,25.0,16.9,3.0,88,57,15,0.00,40.00,5,3,15,0.01
2013-3-20,49.0,38.0,31.0,39.0,30.4,21.0,96,75,58,0.00,40.00,7,3,17,0.25
2013-3-21,36.0,29.1,24.0,32.0,20.7,13.0,95,73,42,0.00,40.00,9,4,21,0.19
2013-3-22,34.0,24.0,18.0,20.0,14.4,6.0,88,69,35,0.00,40.00,6,3,16,0.00
2013-3-23,34.0,22.5,13.0,17.0,9.3,-4.0,86,61,20,0.00,40.00,8,3,16,0.00
2013-3-24,40.0,24.6,10.0,17.0,8.5,2.0,79,54,20,0.00,40.00,5,3,11,0.00
2013-3-25,48.0,29.2,14.0,23.0,11.4,6.0,75,52,21,0.00,40.00,6,3,13,0.00
2013-3-26,56.0,37.7,26.0,29.0,23.6,18.0,94,63,26,0.00,40.00,6,2,11,0.00
2013-3-27,57.0,35.8,25.0,26.0,23.4,22.0,89,66,28,0.00,40.00,6,3,14,0.00
2013-3-28,56.0,48.7,36.0,44.0,34.7,31.0,96,62,42,0.00,40.00,7,4,14,0.00
2013-3-29,54.0,39.9,30.0,40.0,33.1,29.0,97,80,44,0.00,40.00,5,2,14,0.04
2013-3-30,60.0,42.6,28.0,34.0,26.5,-99.9,96,65,22,0.00,40.00,6,3,11,0.01
2013-3-31,66.0,45.7,27.0,29.0,24.5,19.0,89,52,17,0.00,40.00,6,3,16,0.00
2013-4-1,65.0,44.5,26.0,32.0,27.9,24.0,91,58,25,0.00,40.00,6,3,12,0.00
2013-4-2,66.0,45.8,29.0,35.0,30.8,27.0,92,62,27,0.00,40.00,5,3,15,0.00
2013-4-3,63.0,45.6,31.0,34.0,30.9,25.0,94,63,24,0.00,40.00,6,3,14,0.00
2013-4-4,62.0,47.0,34.0,43.0,33.7,30.0,90,64,37,0.00,40.00,6,3,13,0.00
2013-4-5,53.0,43.4,36.0,42.0,37.1,33.0,96,80,52,0.00,40.00,8,3,19,0.07
2013-4-6,48.0,40.9,37.0,41.0,36.3,33.0,96,84,60,0.00,40.00,8,3,15,0.11
2013-4-7,44.0,37.7,32.0,40.0,34.2,30.0,96,88,65,0.00,40.00,7,2,17,0.27
2013-4-8,39.0,32.6,28.0,30.0,23.2,12.0,96,72,43,0.00,40.00,8,4,18,0.01
2013-4-9,49.0,32.1,18.0,22.0,13.4,10.0,74,48,26,0.00,40.00,7,4,15,0.00
2013-4-10,53.0,40.2,26.0,42.0,30.2,21.0,84,69,46,0.00,40.00,6,3,18,0.03
2013-4-11,50.0,41.1,34.0,36.0,28.4,21.0,96,64,40,0.00,40.00,6,4,16,0.04
2013-4-12,58.0,39.8,23.0,24.0,17.3,9.0,88,50,15,0.00,40.00,8,3,24,0.01
2013-4-13,46.0,34.8,27.0,34.0,26.8,16.0,97,74,40,0.00,40.00,8,5,22,0.34
2013-4-14,41.0,32.1,25.0,26.0,22.4,17.0,93,70,42,0.00,40.00,5,3,13,0.11
2013-4-15,39.0,30.4,23.0,25.0,15.5,11.0,84,55,38,0.00,40.00,7,5,20,0.00
2013-4-16,37.0,28.4,20.0,13.0,9.3,6.0,55,45,31,0.00,40.00,7,5,19,0.00
2013-4-17,43.0,28.2,13.0,12.0,7.7,2.0,78,46,18,0.00,40.00,5,4,13,0.00
2013-4-18,48.0,31.3,20.0,23.0,15.6,12.0,75,54,30,0.00,40.00,7,3,17,0.00
2013-4-19,50.0,40.8,34.0,37.0,31.3,23.0,89,69,53,0.00,40.00,6,3,16,0.01
2013-4-20,50.0,42.7,37.0,40.0,33.8,29.0,96,73,49,0.00,40.00,7,4,21,0.04
2013-4-21,49.0,42.0,28.0,31.0,27.9,23.0,93,59,35,0.00,40.00,8,4,21,0.06
2013-4-22,41.0,29.4,21.0,26.0,17.1,9.0,93,64,26,0.00,40.00,6,5,18,0.08
2013-4-23,46.0,32.3,18.0,21.0,16.0,9.0,86,56,23,0.00,40.00,5,3,15,0.00
2013-4-24,59.0,40.2,21.0,28.0,19.1,16.0,86,50,18,0.00,40.00,7,3,15,0.00
2013-4-25,64.0,47.2,28.0,28.0,22.6,18.0,81,44,19,0.00,40.00,7,4,17,0.00
2013-4-26,70.0,47.7,28.0,35.0,27.0,24.0,87,51,20,0.00,40.00,7,3,17,0.00
2013-4-27,69.0,51.8,36.0,32.0,27.3,20.0,83,47,17,0.00,40.00,8,4,25,0.00
2013-4-28,59.0,49.8,42.0,38.0,31.5,24.0,79,52,26,0.00,40.00,7,4,19,0.01
2013-4-29,49.0,42.3,38.0,41.0,31.8,25.0,93,69,39,0.00,40.00,8,5,20,0.40
2013-4-30,39.0,34.4,25.0,24.0,18.4,11.0,83,53,34,0.00,40.00,8,4,22,0.01
2013-5-1,50.0,35.0,24.0,23.0,18.4,9.0,85,57,21,0.00,40.00,7,3,16,0.00
2013-5-2,66.0,44.9,23.0,26.0,17.1,3.0,84,43,8,0.00,40.00,7,3,17,0.00
2013-5-3,52.0,44.1,36.0,40.0,30.3,26.0,90,59,40,0.00,40.00,7,3,13,0.03
2013-5-4,55.0,47.7,42.0,40.0,34.8,32.0,92,63,41,0.00,40.00,8,5,17,0.08
2013-5-5,67.0,48.4,28.0,36.0,32.7,27.0,96,60,29,0.00,40.00,6,3,16,0.01
2013-5-6,74.0,54.6,31.0,36.0,31.1,25.0,93,50,16,0.00,40.00,7,3,13,0.00
2013-5-7,76.0,56.6,35.0,37.0,31.0,23.0,87,47,14,0.00,40.00,6,4,19,0.00
2013-5-8,78.0,56.9,35.0,39.0,34.5,31.0,90,51,19,0.00,40.00,5,3,17,0.00
2013-5-9,77.0,55.0,38.0,46.0,37.1,32.0,86,57,19,0.00,40.00,5,3,14,0.00
2013-5-10,77.0,58.2,38.0,45.0,32.2,-99.9,91,51,16,0.00,40.00,6,3,12,0.00
2013-5-11,78.0,57.6,40.0,44.0,35.0,-99.9,81,51,18,0.00,40.00,7,3,16,0.00
2013-5-12,85.0,64.2,45.0,45.0,38.2,30.0,76,46,15,0.00,40.00,7,4,22,0.00
2013-5-13,82.0,61.4,44.0,45.0,40.2,29.0,89,54,16,0.00,40.00,8,4,23,0.00
2013-5-14,70.0,55.1,38.0,40.0,33.3,25.0,84,48,20,0.00,40.00,7,4,19,0.00
2013-5-15,67.0,51.0,37.0,44.0,37.1,34.0,93,63,31,0.00,40.00,6,3,15,0.00
2013-5-16,61.0,45.2,41.0,47.0,25.0,-99.9,97,74,47,0.00,40.00,6,3,13,0.05
2013-5-17,52.0,46.3,43.0,44.0,38.5,-99.9,97,86,58,0.00,40.00,4,2,10,0.43
2013-5-18,58.0,47.7,38.0,43.0,39.6,37.0,97,77,46,0.00,40.00,6,2,14,0.02
2013-5-19,55.0,47.9,41.0,42.0,38.7,34.0,91,72,45,0.00,40.00,4,2,9,0.00
2013-5-20,69.0,53.1,37.0,42.0,38.6,32.0,96,64,26,0.00,40.00,6,2,12,0.00
2013-5-21,70.0,54.7,35.0,49.0,36.5,29.0,96,59,22,0.00,40.00,8,3,19,0.01
2013-5-22,59.0,49.1,41.0,49.0,42.1,33.0,98,79,37,0.00,40.00,6,3,16,0.08
2013-5-23,57.0,45.6,36.0,37.0,31.3,27.0,88,61,32,0.00,40.00,9,4,17,0.04
2013-5-24,56.0,46.1,32.0,37.0,32.2,25.0,95,63,31,0.00,40.00,7,4,22,0.00
2013-5-25,59.0,46.0,33.0,46.0,36.5,31.0,94,72,43,0.00,40.00,5,2,17,0.05
2013-5-26,67.0,45.5,31.0,47.0,38.2,30.0,97,80,29,0.00,40.00,8,3,15,0.16
2013-5-27,64.0,49.3,37.0,46.0,40.0,36.0,97,74,44,0.00,40.00,5,3,11,0.05
2013-5-28,58.0,50.2,43.0,46.0,42.0,37.0,98,76,47,0.00,40.00,6,2,16,0.07
2013-5-29,66.0,48.1,33.0,43.0,36.2,27.0,96,70,23,0.00,40.00,6,3,16,0.03
2013-5-30,58.0,47.4,37.0,40.0,34.3,25.0,96,65,30,0.00,40.00,6,3,17,0.03
2013-5-31,59.0,47.0,37.0,36.0,31.0,25.0,85,58,28,0.00,40.00,6,3,13,0.00
2013-6-1,72.0,51.0,29.0,34.0,29.0,21.0,92,52,15,0.00,40.00,6,3,13,0.00
2013-6-2,54.0,45.6,40.0,48.0,40.4,34.0,96,83,47,0.00,40.00,4,2,12,0.30
2013-6-3,63.0,49.6,40.0,43.0,38.1,30.0,98,71,29,0.00,40.00,6,3,20,0.07
2013-6-4,66.0,51.4,38.0,43.0,39.3,37.0,95,67,35,0.00,40.00,6,3,15,0.01
2013-6-5,79.0,57.3,36.0,42.0,36.9,27.0,96,57,17,0.00,40.00,6,3,17,0.00
2013-6-6,81.0,61.6,45.0,46.0,41.1,38.0,83,52,23,0.00,40.00,7,3,13,0.00
2013-6-7,81.0,62.7,46.0,48.0,43.3,37.0,87,55,21,0.00,40.00,7,3,20,0.00
2013-6-8,81.0,66.2,49.0,43.0,36.2,26.0,77,38,15,0.00,40.00,7,4,17,0.00
2013-6-9,84.0,63.8,43.0,42.0,35.7,24.0,84,45,11,0.00,40.00,9,4,21,0.00
2013-6-10,81.0,64.6,41.0,41.0,35.9,28.0,80,41,19,0.00,40.00,8,4,17,0.00
2013-6-11,78.0,62.4,47.0,54.0,39.9,28.0,80,48,21,0.00,40.00,5,3,13,0.04
2013-6-12,72.0,58.1,43.0,47.0,44.0,40.0,96,64,38,0.00,40.00,7,4,19,0.04
2013-6-13,60.0,50.0,43.0,49.0,44.0,39.0,97,82,48,0.00,40.00,9,2,26,0.62
2013-6-14,62.0,47.3,39.0,43.0,38.5,31.0,97,76,33,0.00,40.00,6,2,13,0.17
2013-6-15,78.0,54.1,32.0,39.0,30.3,13.0,96,55,9,0.00,40.00,6,3,14,0.01
2013-6-16,81.0,60.0,38.0,39.0,34.5,28.0,88,47,15,0.00,40.00,7,3,16,0.00
2013-6-17,85.0,60.4,41.0,50.0,39.4,27.0,87,54,12,0.00,40.00,5,2,12,0.02
2013-6-18,85.0,64.5,45.0,50.0,43.4,34.0,87,54,16,0.00,40.00,6,3,15,0.02
2013-6-19,60.0,50.7,45.0,50.0,46.4,41.0,97,86,64,0.00,40.00,3,2,13,0.69
2013-6-20,54.0,44.7,42.0,44.0,40.5,37.0,97,86,52,0.00,40.00,5,3,12,0.22
2013-6-21,66.0,65.0,63.0,35.0,33.4,29.0,33,31,27,0.00,40.00,5,4,9,0.00
2013-6-22,65.0,55.8,45.0,43.0,40.4,35.0,90,59,33,0.00,40.00,6,3,15,0.00
2013-6-23,75.0,56.2,35.0,48.0,38.1,32.0,95,59,22,0.00,40.00,5,3,15,0.00
2013-6-24,73.0,60.6,51.0,53.0,46.3,41.0,96,63,31,0.00,40.00,6,3,15,0.04
2013-6-25,67.0,56.5,49.0,53.0,48.6,42.0,97,79,40,0.00,40.00,5,2,16,0.08
2013-6-26,69.0,57.8,51.0,59.0,52.9,49.0,97,85,53,0.00,40.00,6,2,12,0.20
2013-6-27,88.0,66.0,49.0,53.0,48.8,41.0,97,64,20,0.00,40.00,6,3,14,0.05
2013-6-28,90.0,69.6,49.0,53.0,49.5,46.0,95,57,23,0.00,40.00,6,3,14,0.00
2013-6-29,87.0,68.7,52.0,62.0,53.5,49.0,91,62,31,0.00,40.00,6,3,16,0.00
2013-6-30,92.0,74.9,55.0,60.0,52.7,43.0,95,55,19,0.00,40.00,7,3,17,0.00
2013-7-1,97.0,73.5,53.0,57.0,50.6,42.0,91,53,18,0.00,40.00,6,3,14,0.00
2013-7-2,101.0,77.1,56.0,62.0,51.5,48.0,77,46,19,0.00,40.00,6,3,13,0.00
2013-7-3,92.0,75.0,58.0,58.0,51.7,36.0,85,51,16,0.00,40.00,7,3,14,0.00
2013-7-4,89.0,70.1,53.0,54.0,46.2,41.0,79,48,19,0.00,40.00,6,3,15,0.00
2013-7-5,83.0,64.5,48.0,58.0,45.0,38.0,87,56,21,0.00,40.00,7,3,14,0.19
2013-7-6,84.0,61.5,44.0,53.0,44.2,35.0,97,63,23,0.00,40.00,6,3,13,0.19
2013-7-7,88.0,68.5,45.0,45.0,40.5,38.0,83,43,18,0.00,40.00,5,3,14,0.00
2013-7-8,88.0,65.2,50.0,47.0,43.9,39.0,78,50,18,0.00,40.00,7,3,19,0.00
2013-7-9,92.0,68.8,47.0,47.0,39.0,22.0,89,45,8,0.00,40.00,6,3,14,0.00
2013-7-10,96.0,72.2,49.0,46.0,35.0,-99.9,66,33,10,0.00,40.00,7,3,18,0.00
2013-7-11,83.0,66.2,53.0,49.0,44.9,37.0,75,49,24,0.00,40.00,8,3,16,0.00
2013-7-12,85.0,62.7,44.0,47.0,42.2,37.0,89,54,20,0.00,40.00,6,3,22,0.01
2013-7-13,81.0,65.0,44.0,47.0,38.7,30.0,89,46,18,0.00,40.00,6,4,15,0.01
2013-7-14,89.0,65.5,43.0,40.0,35.2,31.0,75,39,13,0.00,40.00,7,4,16,0.00
2013-7-15,95.0,68.5,47.0,42.0,37.6,30.0,75,41,10,0.00,40.00,6,3,18,0.00
2013-7-16,90.0,75.0,61.0,65.0,53.2,45.0,99,57,22,0.00,40.00,7,4,17,0.26
2013-7-17,92.0,70.6,56.0,64.0,56.7,48.0,100,70,22,0.00,40.00,7,3,16,0.28
2013-7-18,89.0,71.6,51.0,54.0,40.8,26.0,89,44,11,0.00,40.00,8,3,15,0.00
2013-7-19,93.0,69.2,47.0,42.0,36.2,28.0,70,37,10,0.00,40.00,6,3,18,0.00
2013-7-20,92.0,67.5,46.0,43.0,33.1,-99.9,71,37,8,0.00,40.00,8,3,22,0.00
2013-7-21,94.0,70.4,47.0,37.0,30.0,17.0,60,30,6,0.00,40.00,6,3,16,0.00
2013-7-22,91.0,69.3,46.0,40.0,29.8,16.0,63,31,7,0.00,40.00,6,3,15,0.00
2013-7-23,94.0,69.0,46.0,36.0,30.4,20.0,61,30,7,0.00,40.00,5,3,12,0.00
2013-7-24,96.0,72.0,49.0,36.0,28.0,9.0,56,26,4,0.00,40.00,6,3,17,0.00
2013-7-25,94.0,70.2,47.0,41.0,31.8,24.0,59,29,10,0.00,40.00,8,3,14,0.00
2013-7-26,93.0,71.4,50.0,41.0,36.2,29.0,60,32,11,0.00,40.00,8,3,17,0.00
2013-7-27,89.0,69.1,51.0,44.0,36.3,23.0,67,37,9,0.00,40.00,9,3,17,0.00
2013-7-28,87.0,67.5,49.0,41.0,34.2,23.0,68,35,10,0.00,40.00,6,3,16,0.00
2013-7-29,87.0,65.3,44.0,37.0,31.2,14.0,66,35,7,0.00,40.00,6,2,18,0.00
2013-7-30,85.0,68.9,56.0,43.0,35.5,32.0,61,32,15,0.00,40.00,5,2,19,0.00
2013-7-31,90.0,68.0,44.0,44.0,36.1,33.0,75,37,14,0.00,40.00,6,2,19,0.00
2013-8-1,74.0,58.9,49.0,57.0,49.1,38.0,97,73,31,0.00,40.00,8,2,19,0.40
2013-8-2,74.0,58.1,44.0,54.0,46.1,41.0,99,71,35,0.00,40.00,8,4,21,0.10
2013-8-3,81.0,60.6,41.0,47.0,42.1,32.0,97,59,18,0.00,40.00,8,3,15,0.00
2013-8-4,85.0,64.6,44.0,47.0,39.7,26.0,93,51,13,0.00,40.00,7,3,14,0.00
2013-8-5,87.0,66.2,48.0,46.0,40.1,36.0,73,45,17,0.00,40.00,10,4,19,0.00
2013-8-6,84.0,66.3,46.0,45.0,40.2,34.0,84,45,17,0.00,40.00,6,3,15,0.00
2013-8-7,89.0,67.6,46.0,42.0,32.7,17.0,74,37,8,0.00,40.00,9,3,18,0.00
2013-8-8,88.0,67.0,44.0,39.0,31.6,22.0,62,32,9,0.00,40.00,6,4,16,0.00
2013-8-9,87.0,65.5,54.0,55.0,44.9,37.0,96,52,23,0.00,40.00,8,3,24,0.04
2013-8-10,88.0,66.0,46.0,54.0,45.4,36.0,99,58,18,0.00,40.00,7,3,18,0.04
2013-8-11,84.0,65.2,47.0,49.0,43.1,34.0,90,52,17,0.00,40.00,5,3,19,0.00
2013-8-12,89.0,64.2,45.0,43.0,39.0,28.0,86,48,11,0.00,40.00,7,3,24,0.00
2013-8-13,86.0,65.7,48.0,45.0,37.8,-99.9,74,42,16,0.00,40.00,8,3,15,0.00
2013-8-14,90.0,66.4,45.0,40.0,34.5,-99.9,71,41,13,0.00,40.00,8,3,16,0.00
2013-8-15,96.0,67.1,50.0,40.0,26.7,-99.9,64,32,5,0.00,40.00,6,3,16,0.00
2013-8-16,94.0,67.3,48.0,41.0,31.1,-99.9,59,33,9,0.00,40.00,6,3,18,0.00
2013-8-17,89.0,68.3,48.0,47.0,40.5,-99.9,81,44,16,0.00,40.00,6,2,15,0.00
2013-8-18,91.0,70.5,51.0,47.0,43.8,37.0,79,44,15,0.00,40.00,7,3,20,0.00
2013-8-19,91.0,67.5,49.0,46.0,35.7,-99.9,79,42,12,0.00,40.00,7,3,19,0.00
2013-8-20,90.0,68.6,48.0,43.0,38.2,32.0,73,39,13,0.00,40.00,7,3,17,0.00
2013-8-21,87.0,65.9,43.0,39.0,34.7,30.0,73,38,14,0.00,40.00,6,3,12,0.00
2013-8-22,92.0,67.9,49.0,45.0,36.4,32.0,56,35,15,0.00,40.00,5,2,11,0.00
2013-8-23,87.0,68.8,55.0,51.0,46.1,38.0,80,50,19,0.00,40.00,7,3,17,0.00
2013-8-24,86.0,65.7,48.0,49.0,40.7,-99.9,86,49,14,0.00,40.00,6,3,21,0.00
2013-8-25,89.0,65.4,51.0,60.0,43.8,33.0,98,53,16,0.00,40.00,6,3,18,0.17
2013-8-26,87.0,66.2,48.0,55.0,45.2,34.0,98,60,16,0.00,40.00,7,3,17,0.17
2013-8-27,84.0,56.5,46.0,44.0,38.9,37.0,71,54,24,0.00,40.00,4,2,9,0.00
2013-8-28,84.0,69.4,55.0,55.0,50.9,46.0,94,56,27,0.00,40.00,5,3,11,0.01
2013-8-29,90.0,66.3,51.0,60.0,49.5,42.0,98,62,19,0.00,40.00,7,3,17,0.09
2013-8-30,86.0,65.0,47.0,56.0,47.4,38.0,99,65,19,0.00,40.00,6,3,19,0.08
2013-8-31,88.0,64.5,45.0,48.0,41.4,-99.9,92,53,16,0.00,40.00,6,3,10,0.01
2013-9-1,93.0,64.2,45.0,44.0,38.9,28.0,80,48,10,0.00,40.00,4,2,11,0.00
2013-9-2,85.0,65.2,51.0,49.0,40.3,37.0,65,44,21,0.00,40.00,7,3,12,0.00
2013-9-3,79.0,65.4,57.0,59.0,51.7,46.0,75,62,36,0.00,40.00,4,2,8,0.06
2013-9-4,86.0,68.6,53.0,56.0,51.3,47.0,92,60,28,0.00,40.00,5,3,10,0.06
2013-9-5,79.0,62.7,55.0,62.0,57.1,49.0,99,85,43,0.00,40.00,5,2,16,0.81
2013-9-6,83.0,64.8,56.0,59.0,56.1,54.0,99,78,37,0.00,40.00,6,3,14,0.41
2013-9-7,85.0,61.8,45.0,54.0,42.5,-99.9,98,63,11,0.00,40.00,7,3,15,0.00
2013-9-8,74.0,56.9,45.0,49.0,44.6,40.0,94,67,35,0.00,40.00,7,3,15,0.00
2013-9-9,76.0,59.0,48.0,48.0,44.0,41.0,82,61,31,0.00,40.00,5,3,13,0.00
2013-9-10,83.0,61.8,40.0,45.0,40.9,36.0,95,55,19,0.00,40.00,5,3,12,0.00
2013-9-11,86.0,62.3,40.0,45.0,40.9,38.0,92,54,20,0.00,40.00,6,3,14,0.00
2013-9-12,86.0,64.9,45.0,47.0,44.0,41.0,87,53,22,0.00,40.00,5,2,11,0.00
2013-9-13,82.0,65.8,59.0,55.0,51.5,47.0,88,62,31,0.00,40.00,5,3,14,0.02
2013-9-14,79.0,63.2,52.0,55.0,48.7,-99.9,97,67,30,0.00,40.00,7,3,16,0.02
2013-9-15,83.0,68.6,53.0,49.0,45.7,43.0,74,47,27,0.00,40.00,6,4,15,0.00
2013-9-16,85.0,66.5,53.0,52.0,42.1,20.0,90,52,10,0.00,40.00,9,4,20,0.00
2013-9-17,61.0,51.1,43.0,53.0,43.7,33.0,97,77,38,0.00,40.00,4,2,12,0.12
2013-9-18,49.0,45.3,41.0,48.0,43.2,36.0,98,94,76,0.00,40.00,4,2,8,0.15
2013-9-19,70.0,48.9,32.0,37.0,32.4,26.0,96,62,20,0.00,40.00,5,2,10,0.01
2013-9-20,81.0,53.1,35.0,36.0,29.2,25.0,79,49,13,0.00,40.00,6,3,13,0.00
2013-9-21,76.0,55.6,40.0,37.0,28.5,-99.9,65,41,13,0.00,40.00,7,4,19,0.00
2013-9-22,59.0,48.9,42.0,52.0,45.1,37.0,97,88,44,0.00,40.00,5,2,9,0.17
2013-9-23,64.0,49.9,42.0,45.0,39.7,33.0,98,73,32,0.00,40.00,5,3,15,0.19
2013-9-24,45.0,42.6,39.0,44.0,40.5,37.0,98,93,80,0.00,40.00,2,1,6,0.34
2013-9-25,47.0,41.5,37.0,41.0,38.9,36.0,98,92,69,0.00,40.00,6,3,14,0.46
2013-9-26,46.0,41.2,34.0,40.0,34.0,30.0,97,76,54,0.00,40.00,7,5,17,0.47
2013-9-27,49.0,39.4,29.0,36.0,31.6,28.0,97,76,52,0.00,40.00,5,3,12,0.00
2013-9-28,53.0,44.4,40.0,48.0,38.8,-99.9,94,84,68,0.00,40.00,5,3,12,0.16
2013-9-29,53.0,44.5,39.0,43.0,39.6,37.0,96,84,58,0.00,40.00,6,4,17,0.64
2013-9-30,54.0,42.4,38.0,39.0,36.0,29.0,97,81,39,0.00,40.00,6,4,17,0.82
2013-10-1,49.0,44.1,39.0,39.0,35.9,33.0,92,74,53,0.00,40.00,6,4,15,0.03
2013-10-2,52.0,40.0,30.0,38.0,31.1,27.0,97,75,38,0.00,40.00,6,3,11,0.06
2013-10-3,42.0,37.5,33.0,33.0,30.1,26.0,94,76,55,0.00,40.00,7,5,25,0.12
2013-10-4,52.0,37.0,29.0,33.0,29.0,25.0,96,77,38,0.00,40.00,5,2,10,0.02
2013-10-5,61.0,36.6,26.0,31.0,26.3,22.0,94,72,22,0.00,40.00,5,3,10,0.00
2013-10-6,70.0,40.3,30.0,35.0,29.4,22.0,88,69,16,0.00,40.00,6,3,15,0.00
2013-10-7,70.0,49.5,35.0,36.0,28.4,24.0,76,50,18,0.00,40.00,7,4,21,0.00
2013-10-8,50.0,42.5,33.0,33.0,29.5,26.0,86,62,39,0.00,40.00,6,3,12,0.00
2013-10-9,57.0,43.9,35.0,34.0,32.1,30.0,85,65,38,0.00,40.00,6,3,13,0.00
2013-10-10,52.0,39.2,27.0,34.0,30.2,26.0,95,73,46,0.00,40.00,4,2,9,0.00
2013-10-11,55.0,41.3,30.0,33.0,27.1,19.0,86,62,27,0.00,40.00,5,2,13,0.00
2013-10-12,52.0,36.2,27.0,29.0,24.8,-99.9,90,69,39,0.00,40.00,5,2,12,0.00
2013-10-13,52.0,38.2,26.0,37.0,28.9,25.0,94,72,44,0.00,40.00,6,2,14,0.00
2013-10-14,52.0,42.5,35.0,37.0,29.6,22.0,91,65,32,0.00,40.00,6,3,15,0.00
2013-10-15,57.0,35.4,23.0,27.0,23.7,20.0,92,67,24,0.00,40.00,5,2,11,0.00
2013-10-16,53.0,35.8,27.0,30.0,24.6,21.0,84,66,31,0.00,40.00,4,2,8,0.00
2013-10-17,52.0,38.9,30.0,32.0,29.8,28.0,91,72,42,0.00,40.00,6,2,12,0.00
2013-10-18,58.0,34.4,25.0,30.0,25.0,22.0,93,74,25,0.00,40.00,4,2,11,0.00
2013-10-19,50.0,36.7,31.0,25.0,20.7,-99.9,75,57,35,0.00,40.00,4,2,10,0.00
2013-10-20,60.0,42.0,29.0,33.0,27.3,22.0,83,59,31,0.00,40.00,5,2,12,0.00
2013-10-21,65.0,39.5,28.0,37.0,30.8,26.0,94,75,32,0.00,40.00,4,2,10,0.00
2013-10-22,69.0,39.7,29.0,37.0,30.4,24.0,95,74,18,0.00,40.00,4,2,10,0.00
2013-10-23,66.0,39.4,27.0,35.0,28.0,24.0,91,69,29,0.00,40.00,7,2,15,0.00
2013-10-24,69.0,40.7,26.0,32.0,27.6,23.0,88,65,25,0.00,40.00,5,2,10,0.00
2013-10-25,68.0,39.9,29.0,35.0,28.8,26.0,90,70,24,0.00,40.00,5,2,10,0.00
2013-10-26,65.0,36.2,28.0,34.0,25.5,-99.9,90,71,25,0.00,40.00,4,2,8,0.00
2013-10-27,58.0,40.3,29.0,34.0,26.4,24.0,83,60,38,0.00,40.00,9,4,22,0.00
2013-10-28,41.0,29.8,26.0,24.0,15.0,-99.9,81,56,47,0.00,40.00,10,8,24,0.00
2013-10-29,45.0,30.2,15.0,25.0,16.8,11.0,83,59,39,0.00,40.00,6,3,12,0.00
2013-10-30,49.0,35.5,27.0,28.0,25.0,21.0,84,67,38,0.00,40.00,7,2,16,0.00
2013-10-31,42.0,38.0,29.0,40.0,30.7,22.0,97,77,49,0.00,40.00,6,2,13,0.12
2013-11-1,52.0,39.0,31.0,42.0,33.1,28.0,98,83,39,0.00,40.00,5,2,12,0.07
2013-11-2,49.0,36.8,31.0,41.0,29.3,-99.9,96,78,43,0.00,40.00,6,3,14,0.11
2013-11-3,36.0,31.7,27.0,32.0,23.6,19.0,95,72,51,0.00,40.00,6,4,14,0.04
2013-11-4,36.0,27.0,20.0,26.0,20.3,15.0,93,77,45,0.00,40.00,5,2,13,0.02
2013-11-5,34.0,25.4,15.0,27.0,17.1,7.0,85,71,40,0.00,40.00,6,4,15,0.00
2013-11-6,43.0,37.2,32.0,33.0,28.1,23.0,95,71,51,0.00,40.00,6,3,17,0.00
2013-11-7,41.0,37.5,34.0,39.0,35.1,31.0,96,91,81,0.00,40.00,5,3,26,0.26
2013-11-8,39.0,34.7,31.0,34.0,31.5,29.0,95,88,76,0.00,40.00,5,3,13,0.19
2013-11-9,48.0,32.9,25.0,33.0,26.2,-99.9,95,80,52,0.00,40.00,4,2,9,0.01
2013-11-10,55.0,40.8,33.0,34.0,32.0,30.0,89,72,45,0.00,40.00,4,3,14,0.00
2013-11-11,54.0,34.0,27.0,35.0,29.4,26.0,95,85,45,0.00,40.00,3,2,8,0.00
2013-11-12,57.0,36.5,29.0,36.0,29.8,26.0,95,78,40,0.00,40.00,5,3,11,0.00
2013-11-13,49.0,42.5,32.0,40.0,32.1,23.0,96,68,42,0.00,40.00,6,2,16,0.01
2013-11-14,47.0,34.2,27.0,26.0,23.0,16.0,88,67,31,0.00,40.00,6,3,12,0.01
2013-11-15,44.0,36.7,30.0,26.0,20.5,16.0,74,53,32,0.00,40.00,6,4,22,0.00
2013-11-16,35.0,30.5,26.0,29.0,25.5,-99.9,95,84,66,0.00,40.00,5,4,15,0.19
2013-11-17,38.0,30.8,26.0,29.0,25.5,22.0,91,81,61,0.00,40.00,5,3,13,0.07
2013-11-18,41.0,29.5,21.0,32.0,24.0,17.0,95,81,58,0.00,40.00,5,3,14,0.02
2013-11-19,43.0,38.0,33.0,39.0,35.1,30.0,96,90,74,0.00,40.00,4,3,11,0.30
2013-11-20,38.0,32.9,21.0,36.0,25.1,14.0,97,76,40,0.00,40.00,6,3,14,0.43
2013-11-21,33.0,19.1,10.0,16.0,10.9,6.0,88,73,40,0.00,40.00,4,2,6,0.01
2013-11-22,39.0,19.0,10.0,15.0,10.5,6.0,87,72,34,0.00,40.00,4,2,7,0.00
2013-11-23,37.0,19.2,12.0,20.0,12.3,-99.9,91,80,44,0.00,40.00,3,2,6,0.00
2013-11-24,44.0,24.2,17.0,24.0,18.2,14.0,91,79,41,0.00,40.00,3,2,9,0.00
2013-11-25,46.0,29.6,20.0,27.0,21.5,17.0,88,74,39,0.00,40.00,4,2,9,0.00
2013-11-26,45.0,30.5,25.0,28.0,24.4,21.0,88,79,44,0.00,40.00,4,2,9,0.00
2013-11-27,47.0,30.4,25.0,27.0,23.9,22.0,91,78,45,0.00,40.00,3,2,6,0.00
2013-11-28,45.0,27.7,22.0,25.0,22.2,20.0,91,81,44,0.00,40.00,3,2,7,0.00
2013-11-29,45.0,28.1,22.0,25.0,21.6,19.0,88,78,40,0.00,40.00,4,2,8,0.00
2013-11-30,45.0,37.6,33.0,37.0,29.6,-99.9,97,77,53,0.00,40.00,6,2,13,0.01
2013-12-1,37.0,35.2,33.0,35.0,33.8,32.0,97,95,90,0.00,40.00,5,3,10,1.22
2013-12-2,36.0,32.2,23.0,35.0,29.3,20.0,98,90,62,0.00,40.00,6,3,12,1.29
2013-12-3,23.0,13.9,6.0,21.0,3.3,-6.0,90,63,45,0.00,40.00,8,5,17,0.04
2013-12-4,13.0,3.1,-4.0,-5.0,-7.0,-10.0,78,64,36,0.00,40.00,5,2,12,0.00
2013-12-5,15.0,-0.2,-9.0,-3.0,-9.9,-17.0,77,64,42,0.00,40.00,6,3,11,0.00
2013-12-6,6.0,-0.5,-5.0,-5.0,-9.0,-12.0,77,67,52,0.00,40.00,5,3,12,0.00
2013-12-7,4.0,-3.8,-11.0,-12.0,-15.3,-99.9,73,60,45,0.00,40.00,7,4,15,0.00
2013-12-8,6.0,-4.3,-12.0,-3.0,-11.7,-19.0,76,70,63,0.00,40.00,4,2,8,0.00
2013-12-9,23.0,9.9,-8.0,17.0,3.8,-14.0,88,75,67,0.00,40.00,5,3,11,0.01
2013-12-10,28.0,23.8,20.0,17.0,15.0,12.0,82,69,56,0.00,40.00,5,3,15,0.01
2013-12-11,33.0,20.6,13.0,18.0,14.3,10.0,88,77,46,0.00,40.00,6,3,15,0.00
2013-12-12,34.0,22.7,17.0,25.0,16.5,12.0,88,77,51,0.00,40.00,8,4,17,0.00
2013-12-13,38.0,29.7,26.0,31.0,25.6,20.0,94,85,64,0.00,40.00,3,2,8,0.00
2013-12-14,39.0,32.0,28.0,30.0,25.7,-99.9,95,81,57,0.00,40.00,5,2,11,0.00
2013-12-15,43.0,32.5,28.0,30.0,24.6,21.0,87,73,48,0.00,40.00,6,3,12,0.00
2013-12-16,44.0,31.2,26.0,28.0,22.5,19.0,85,71,41,0.00,40.00,5,3,14,0.00
2013-12-17,52.0,31.0,24.0,21.0,18.9,17.0,81,63,27,0.00,40.00,8,4,15,0.00
2013-12-18,43.0,35.2,31.0,28.0,23.0,20.0,83,61,41,0.00,40.00,7,3,18,0.00
2013-12-19,32.0,26.7,15.0,28.0,20.5,12.0,91,78,56,0.00,40.00,6,3,13,0.00
2013-12-20,30.0,21.2,14.0,24.0,13.7,7.0,93,74,37,0.00,40.00,6,3,14,0.09
2013-12-21,34.0,29.2,26.0,27.0,24.1,-99.9,93,84,68,0.00,40.00,4,2,11,0.16
2013-12-22,36.0,31.3,27.0,30.0,28.0,25.0,95,88,74,0.00,40.00,3,2,9,0.01
2013-12-23,40.0,35.4,31.0,37.0,33.7,30.0,97,93,87,0.00,40.00,7,3,15,0.41
2013-12-24,37.0,31.3,25.0,31.0,20.9,16.0,92,66,47,0.00,40.00,6,4,21,0.33
2013-12-25,33.0,21.1,14.0,22.0,13.1,8.0,79,71,47,0.00,40.00,6,4,14,0.00
2013-12-26,45.0,31.7,27.0,28.0,24.5,21.0,86,75,51,0.00,40.00,3,2,7,0.00
2013-12-27,44.0,34.8,28.0,26.0,23.6,20.0,81,65,44,0.00,40.00,5,3,12,0.00
2013-12-28,40.0,32.6,22.0,21.0,16.3,-99.9,79,54,42,0.00,40.00,6,3,15,0.00
2013-12-29,36.0,22.9,17.0,25.0,15.4,11.0,86,73,38,0.00,40.00,5,2,13,0.00
2013-12-30,45.0,35.1,28.0,35.0,27.2,21.0,95,74,47,0.00,40.00,6,3,12,0.02
2013-12-31,41.0,36.5,33.0,35.0,32.4,29.0,96,86,69,0.00,40.00,5,3,17,0.06
2014-1-1,42.0,30.4,26.0,30.0,24.4,21.0,92,80,44,0.00,40.00,5,2,11,0.01
2014-1-2,45.0,32.9,26.0,30.0,22.5,19.0,82,67,38,0.00,40.00,6,4,15,0.00